^^
Station Historical Data
 
Daily Summary for December 14, 2017 Units:  Both    English   Metric
« Previous Day
Next Day »
Daily Weekly Monthly Yearly Custom
  Current: High: Low: Average:
Temperature: 78.3 °F /  25.7 °C 78.7 °F /  25.9 °C 52.6 °F /  11.4 °C 64 °F /  17.8 °C
Dew Point: 32.6 °F /  0.3 °C 48.0 °F /  8.9 °C 29.6 °F /  -1.3 °C 40.7 °F /  4.8 °C
Humidity: 19% 61% 17% 46%
Wind Speed: 9.2mph /  14.8km/h 12.7mph /  20.4km/h - 4.6mph /  7.4km/h
Wind Gust: 9.2mph /  14.8km/h 12.7mph /  20.4km/h - -
WindWest - - SE
Pressure: 29.87 in /  1011.4 hPa 29.98 in /  1015.1 hPa 29.87 in /  1011.4 hPa -
Precipitation: 0.00 in /  0 mm      
Historical Graphs
 
 
Tabular Data for December 14, 2017
Time Temperature Dew Point Pressure Wind Wind Speed Wind Gust Humidity Rainfall Rate (Hourly) solar Conditions
00:00 65.3 °F /  18.5 °C 42.8 °F /  6 °C 29.93in /  1013.4hPa SE 6.9mph /  11.1km/h 6.9mph /  11.1km/h 44% 0.00in /  0mm WeatherDisplay:10.37 W/m2 OVC
00:10 65.1 °F /  18.4 °C 43.2 °F /  6.2 °C 29.93in /  1013.4hPa SSE 7.0mph /  11.3km/h 7.0mph /  11.3km/h 45% 0.00in /  0mm WeatherDisplay:10.37 W/m2 OVC
00:15 65.1 °F /  18.4 °C 43.8 °F /  6.6 °C 29.93in /  1013.4hPa SE 7.0mph /  11.3km/h 7.0mph /  11.3km/h 46% 0.00in /  0mm WeatherDisplay:10.37 W/m2 OVC
00:20 65.3 °F /  18.5 °C 44.0 °F /  6.7 °C 29.92in /  1013.1hPa SE 8.1mph /  13km/h 8.1mph /  13km/h 46% 0.00in /  0mm WeatherDisplay:10.37 W/m2 OVC
00:25 65.3 °F /  18.5 °C 44.0 °F /  6.7 °C 29.92in /  1013.1hPa SSE 8.1mph /  13km/h 8.1mph /  13km/h 46% 0.00in /  0mm WeatherDisplay:10.37 W/m2 OVC
00:30 65.3 °F /  18.5 °C 44.5 °F /  6.9 °C 29.92in /  1013.1hPa SE 4.6mph /  7.4km/h 4.6mph /  7.4km/h 47% 0.00in /  0mm WeatherDisplay:10.37 W/m2 OVC
00:35 65.2 °F /  18.4 °C 44.5 °F /  6.9 °C 29.93in /  1013.4hPa SSE 5.8mph /  9.3km/h 5.8mph /  9.3km/h 47% 0.00in /  0mm WeatherDisplay:10.37 W/m2 OVC
00:40 65.0 °F /  18.3 °C 44.8 °F /  7.1 °C 29.92in /  1013.1hPa SE 4.6mph /  7.4km/h 4.6mph /  7.4km/h 48% 0.00in /  0mm WeatherDisplay:10.37 W/m2 OVC
00:45 64.8 °F /  18.2 °C 45.2 °F /  7.3 °C 29.93in /  1013.4hPa SSE 5.8mph /  9.3km/h 5.8mph /  9.3km/h 49% 0.00in /  0mm WeatherDisplay:10.37 W/m2 OVC
00:48 64.7 °F /  18.2 °C 45.6 °F /  7.6 °C 29.93in /  1013.4hPa ESE 6.9mph /  11.1km/h 6.9mph /  11.1km/h 50% 0.00in /  0mm WeatherDisplay:10.37 W/m2 OVC
00:53 64.5 °F /  18.1 °C 45.4 °F /  7.4 °C 29.93in /  1013.4hPa SE 10.0mph /  16.1km/h 10.0mph /  16.1km/h 50% 0.00in /  0mm WeatherDisplay:10.37 W/m2 OVC
00:58 64.4 °F /  18 °C 45.9 °F /  7.7 °C 29.93in /  1013.4hPa SSE 10.0mph /  16.1km/h 10.0mph /  16.1km/h 51% 0.00in /  0mm WeatherDisplay:10.37 W/m2 OVC
01:03 64.2 °F /  17.9 °C 45.7 °F /  7.6 °C 29.93in /  1013.4hPa SSE 9.2mph /  14.8km/h 9.2mph /  14.8km/h 51% 0.00in /  0mm WeatherDisplay:10.37 W/m2 OVC
01:08 64.0 °F /  17.8 °C 46.0 °F /  7.8 °C 29.92in /  1013.1hPa SE 8.1mph /  13km/h 8.1mph /  13km/h 52% 0.00in /  0mm WeatherDisplay:10.37 W/m2 OVC
01:09 64.0 °F /  17.8 °C 46.0 °F /  7.8 °C 29.92in /  1013.1hPa SE 8.1mph /  13km/h 8.1mph /  13km/h 52% 0.00in /  0mm WeatherDisplay:10.37 W/m2 OVC
01:14 63.9 °F /  17.7 °C 45.9 °F /  7.7 °C 29.92in /  1013.1hPa ESE 9.2mph /  14.8km/h 9.2mph /  14.8km/h 52% 0.00in /  0mm WeatherDisplay:10.37 W/m2 OVC
01:23 63.8 °F /  17.7 °C 46.3 °F /  7.9 °C 29.92in /  1013.1hPa South 9.2mph /  14.8km/h 9.2mph /  14.8km/h 53% 0.00in /  0mm WeatherDisplay:10.37 W/m2 OVC
01:30 63.8 °F /  17.7 °C 46.3 °F /  7.9 °C 29.92in /  1013.1hPa SSE 7.0mph /  11.3km/h 7.0mph /  11.3km/h 53% 0.00in /  0mm WeatherDisplay:10.37 W/m2 OVC
01:40 63.8 °F /  17.7 °C 47.3 °F /  8.5 °C 29.92in /  1013.1hPa SSE 4.6mph /  7.4km/h 4.6mph /  7.4km/h 55% 0.00in /  0mm WeatherDisplay:10.37 W/m2 OVC
01:41 63.8 °F /  17.7 °C 47.3 °F /  8.5 °C 29.92in /  1013.1hPa SSE 4.6mph /  7.4km/h 4.6mph /  7.4km/h 55% 0.00in /  0mm WeatherDisplay:10.37 W/m2 OVC
01:46 63.8 °F /  17.7 °C 47.3 °F /  8.5 °C 29.93in /  1013.4hPa SSE 5.8mph /  9.3km/h 5.8mph /  9.3km/h 55% 0.00in /  0mm WeatherDisplay:10.37 W/m2 OVC
01:51 63.8 °F /  17.7 °C 47.3 °F /  8.5 °C 29.93in /  1013.4hPa SSE 5.0mph /  8km/h 5.0mph /  8km/h 55% 0.00in /  0mm WeatherDisplay:10.37 W/m2 OVC
01:56 63.9 °F /  17.7 °C 47.4 °F /  8.6 °C 29.93in /  1013.4hPa SSE 6.9mph /  11.1km/h 6.9mph /  11.1km/h 55% 0.00in /  0mm WeatherDisplay:10.37 W/m2 OVC
02:01 63.9 °F /  17.7 °C 47.4 °F /  8.6 °C 29.93in /  1013.4hPa SSE 5.8mph /  9.3km/h 5.8mph /  9.3km/h 55% 0.00in /  0mm WeatherDisplay:10.37 W/m2 OVC
02:04 64.0 °F /  17.8 °C 47.5 °F /  8.6 °C 29.93in /  1013.4hPa SE 8.1mph /  13km/h 8.1mph /  13km/h 55% 0.00in /  0mm WeatherDisplay:10.37 W/m2 OVC
02:09 64.0 °F /  17.8 °C 48.0 °F /  8.9 °C 29.93in /  1013.4hPa SSE 3.5mph /  5.6km/h 3.5mph /  5.6km/h 56% 0.00in /  0mm WeatherDisplay:10.37 W/m2 OVC
02:14 63.7 °F /  17.6 °C 47.2 °F /  8.4 °C 29.93in /  1013.4hPa Calm     55% 0.00in /  0mm WeatherDisplay:10.37 W/m2 OVC
02:19 63.2 °F /  17.3 °C 45.8 °F /  7.7 °C 29.93in /  1013.4hPa Calm     53% 0.00in /  0mm WeatherDisplay:10.37 W/m2 OVC
02:24 62.6 °F /  17 °C 45.7 °F /  7.6 °C 29.93in /  1013.4hPa SSE 1.2mph /  1.9km/h 1.2mph /  1.9km/h 54% 0.00in /  0mm WeatherDisplay:10.37 W/m2 OVC
02:29 61.9 °F /  16.6 °C 45.1 °F /  7.3 °C 29.93in /  1013.4hPa Calm     54% 0.00in /  0mm WeatherDisplay:10.37 W/m2 OVC
02:34 61.6 °F /  16.4 °C 45.3 °F /  7.4 °C 29.93in /  1013.4hPa Calm     55% 0.00in /  0mm WeatherDisplay:10.37 W/m2 OVC
02:39 61.2 °F /  16.2 °C 44.9 °F /  7.2 °C 29.93in /  1013.4hPa Calm     55% 0.00in /  0mm WeatherDisplay:10.37 W/m2 OVC
02:44 59.9 °F /  15.5 °C 43.2 °F /  6.2 °C 29.94in /  1013.8hPa ENE 3.5mph /  5.6km/h 3.5mph /  5.6km/h 54% 0.00in /  0mm WeatherDisplay:10.37 W/m2 OVC
02:49 58.9 °F /  14.9 °C 42.8 °F /  6 °C 29.94in /  1013.8hPa Calm     55% 0.00in /  0mm WeatherDisplay:10.37 W/m2 OVC
02:54 58.4 °F /  14.7 °C 42.8 °F /  6 °C 29.94in /  1013.8hPa North 2.3mph /  3.7km/h 2.3mph /  3.7km/h 56% 0.00in /  0mm WeatherDisplay:10.37 W/m2 OVC
02:55 58.4 °F /  14.7 °C 42.3 °F /  5.7 °C 29.94in /  1013.8hPa North 2.3mph /  3.7km/h 2.3mph /  3.7km/h 55% 0.00in /  0mm WeatherDisplay:10.37 W/m2 OVC
03:00 57.8 °F /  14.3 °C 42.2 °F /  5.7 °C 29.94in /  1013.8hPa North 2.3mph /  3.7km/h 2.3mph /  3.7km/h 56% 0.00in /  0mm WeatherDisplay:10.37 W/m2 OVC
03:05 57.4 °F /  14.1 °C 42.3 °F /  5.7 °C 29.94in /  1013.8hPa NE 2.3mph /  3.7km/h 2.3mph /  3.7km/h 57% 0.00in /  0mm WeatherDisplay:10.37 W/m2 OVC
03:10 57.2 °F /  14 °C 42.1 °F /  5.6 °C 29.94in /  1013.8hPa Calm     57% 0.00in /  0mm WeatherDisplay:10.37 W/m2 OVC
03:15 57.1 °F /  13.9 °C 42.5 °F /  5.8 °C 29.94in /  1013.8hPa Calm     58% 0.00in /  0mm WeatherDisplay:10.37 W/m2 OVC
03:20 57.2 °F /  14 °C 42.1 °F /  5.6 °C 29.93in /  1013.4hPa Calm     57% 0.00in /  0mm WeatherDisplay:10.37 W/m2 OVC
03:23 57.3 °F /  14.1 °C 42.2 °F /  5.7 °C 29.94in /  1013.8hPa Calm     57% 0.00in /  0mm WeatherDisplay:10.37 W/m2 OVC
03:28 57.4 °F /  14.1 °C 42.7 °F /  5.9 °C 29.93in /  1013.4hPa Calm     58% 0.00in /  0mm WeatherDisplay:10.37 W/m2 OVC
03:33 57.5 °F /  14.2 °C 42.8 °F /  6 °C 29.93in /  1013.4hPa Calm     58% 0.00in /  0mm WeatherDisplay:10.37 W/m2 OVC
03:35 57.6 °F /  14.2 °C 42.5 °F /  5.8 °C 29.93in /  1013.4hPa Calm     57% 0.00in /  0mm WeatherDisplay:10.37 W/m2 OVC
03:40 57.7 °F /  14.3 °C 42.6 °F /  5.9 °C 29.93in /  1013.4hPa Calm     57% 0.00in /  0mm WeatherDisplay:10.37 W/m2 OVC
03:45 58.1 °F /  14.5 °C 42.9 °F /  6.1 °C 29.93in /  1013.4hPa ENE 2.3mph /  3.7km/h   57% 0.00in /  0mm WeatherDisplay:10.37 W/m2 OVC
03:47 58.1 °F /  14.5 °C 42.9 °F /  6.1 °C 29.93in /  1013.4hPa Calm     57% 0.00in /  0mm WeatherDisplay:10.37 W/m2 OVC
03:48 58.2 °F /  14.6 °C 43.0 °F /  6.1 °C 29.93in /  1013.4hPa Calm     57% 0.00in /  0mm WeatherDisplay:10.37 W/m2 OVC
03:52 58.2 °F /  14.6 °C 43.0 °F /  6.1 °C 29.93in /  1013.4hPa Calm     57% 0.00in /  0mm WeatherDisplay:10.37 W/m2 OVC
03:57 58.1 °F /  14.5 °C 42.9 °F /  6.1 °C 29.93in /  1013.4hPa ENE 3.5mph /  5.6km/h 3.5mph /  5.6km/h 57% 0.00in /  0mm WeatherDisplay:10.37 W/m2 OVC
04:02 57.9 °F /  14.4 °C 42.8 °F /  6 °C 29.93in /  1013.4hPa ENE 3.5mph /  5.6km/h 3.5mph /  5.6km/h 57% 0.00in /  0mm WeatherDisplay:10.37 W/m2 OVC
04:03 57.9 °F /  14.4 °C 42.8 °F /  6 °C 29.93in /  1013.4hPa ENE 3.5mph /  5.6km/h 3.5mph /  5.6km/h 57% 0.00in /  0mm WeatherDisplay:10.37 W/m2 OVC
04:08 57.6 °F /  14.2 °C 42.5 °F /  5.8 °C 29.93in /  1013.4hPa NE 4.0mph /  6.4km/h 4.0mph /  6.4km/h 57% 0.00in /  0mm WeatherDisplay:10.37 W/m2 OVC
04:13 57.3 °F /  14.1 °C 42.6 °F /  5.9 °C 29.93in /  1013.4hPa ENE 2.3mph /  3.7km/h 2.3mph /  3.7km/h 58% 0.00in /  0mm WeatherDisplay:10.37 W/m2 OVC
04:18 57.0 °F /  13.9 °C 42.4 °F /  5.8 °C 29.93in /  1013.4hPa ENE 4.0mph /  6.4km/h 4.0mph /  6.4km/h 58% 0.00in /  0mm WeatherDisplay:10.37 W/m2 OVC
04:20 57.0 °F /  13.9 °C 42.4 °F /  5.8 °C 29.93in /  1013.4hPa ENE 3.5mph /  5.6km/h 3.5mph /  5.6km/h 58% 0.00in /  0mm WeatherDisplay:10.37 W/m2 OVC
04:25 56.8 °F /  13.8 °C 42.2 °F /  5.7 °C 29.93in /  1013.4hPa Calm     58% 0.00in /  0mm WeatherDisplay:10.37 W/m2 OVC
04:30 56.6 °F /  13.7 °C 42.4 °F /  5.8 °C 29.93in /  1013.4hPa Calm     59% 0.00in /  0mm WeatherDisplay:10.37 W/m2 OVC
04:35 56.4 °F /  13.6 °C 42.2 °F /  5.7 °C 29.93in /  1013.4hPa Calm     59% 0.00in /  0mm WeatherDisplay:10.37 W/m2 OVC
04:45 55.9 °F /  13.3 °C 42.2 °F /  5.7 °C 29.93in /  1013.4hPa East 2.3mph /  3.7km/h 2.3mph /  3.7km/h 60% 0.00in /  0mm WeatherDisplay:10.37 W/m2 OVC
04:46 55.9 °F /  13.3 °C 42.2 °F /  5.7 °C 29.93in /  1013.4hPa East 2.3mph /  3.7km/h 2.3mph /  3.7km/h 60% 0.00in /  0mm WeatherDisplay:10.37 W/m2 OVC
04:51 55.8 °F /  13.2 °C 42.1 °F /  5.6 °C 29.93in /  1013.4hPa East 1.2mph /  1.9km/h 1.2mph /  1.9km/h 60% 0.00in /  0mm WeatherDisplay:10.37 W/m2 OVC
04:56 55.8 °F /  13.2 °C 42.1 °F /  5.6 °C 29.93in /  1013.4hPa ENE 3.5mph /  5.6km/h 3.5mph /  5.6km/h 60% 0.00in /  0mm WeatherDisplay:10.37 W/m2 OVC
04:59 55.6 °F /  13.1 °C 41.9 °F /  5.5 °C 29.93in /  1013.4hPa ENE 3.5mph /  5.6km/h 3.5mph /  5.6km/h 60% 0.00in /  0mm WeatherDisplay:10.37 W/m2 OVC
05:04 55.3 °F /  12.9 °C 41.6 °F /  5.3 °C 29.93in /  1013.4hPa ENE 5.0mph /  8km/h 5.0mph /  8km/h 60% 0.00in /  0mm WeatherDisplay:10.37 W/m2 OVC
05:09 54.9 °F /  12.7 °C 41.3 °F /  5.2 °C 29.93in /  1013.4hPa ENE 5.8mph /  9.3km/h 5.8mph /  9.3km/h 60% 0.00in /  0mm WeatherDisplay:10.37 W/m2 OVC
05:15 54.6 °F /  12.6 °C 41.4 °F /  5.2 °C 29.93in /  1013.4hPa ENE 3.5mph /  5.6km/h 3.5mph /  5.6km/h 61% 0.00in /  0mm WeatherDisplay:10.37 W/m2 OVC
05:20 54.5 °F /  12.5 °C 41.3 °F /  5.2 °C 29.93in /  1013.4hPa ENE 4.6mph /  7.4km/h 4.6mph /  7.4km/h 61% 0.00in /  0mm WeatherDisplay:10.37 W/m2 OVC
05:22 54.5 °F /  12.5 °C 41.3 °F /  5.2 °C 29.93in /  1013.4hPa ENE 4.6mph /  7.4km/h 4.6mph /  7.4km/h 61% 0.00in /  0mm WeatherDisplay:10.37 W/m2 OVC
05:25 54.3 °F /  12.4 °C 41.1 °F /  5.1 °C 29.93in /  1013.4hPa ENE 3.5mph /  5.6km/h 3.5mph /  5.6km/h 61% 0.00in /  0mm WeatherDisplay:10.37 W/m2 OVC
05:30 54.2 °F /  12.3 °C 41.0 °F /  5 °C 29.93in /  1013.4hPa East 4.0mph /  6.4km/h 4.0mph /  6.4km/h 61% 0.00in /  0mm WeatherDisplay:10.37 W/m2 OVC
05:35 54.2 °F /  12.3 °C 41.0 °F /  5 °C 29.93in /  1013.4hPa SE 3.0mph /  4.8km/h 3.0mph /  4.8km/h 61% 0.00in /  0mm WeatherDisplay:10.37 W/m2 OVC
05:40 54.2 °F /  12.3 °C 41.0 °F /  5 °C 29.93in /  1013.4hPa East 3.5mph /  5.6km/h 3.5mph /  5.6km/h 61% 0.00in /  0mm WeatherDisplay:10.37 W/m2 OVC
05:45 54.4 °F /  12.4 °C 40.8 °F /  4.9 °C 29.93in /  1013.4hPa East 3.5mph /  5.6km/h 3.5mph /  5.6km/h 60% 0.00in /  0mm WeatherDisplay:10.37 W/m2 OVC
05:50 54.4 °F /  12.4 °C 40.4 °F /  4.7 °C 29.93in /  1013.4hPa East 3.5mph /  5.6km/h 3.5mph /  5.6km/h 59% 0.00in /  0mm WeatherDisplay:10.37 W/m2 OVC
05:55 54.4 °F /  12.4 °C 40.4 °F /  4.7 °C 29.93in /  1013.4hPa East 3.5mph /  5.6km/h 3.5mph /  5.6km/h 59% 0.00in /  0mm WeatherDisplay:10.37 W/m2 OVC
06:00 54.5 °F /  12.5 °C 40.5 °F /  4.7 °C 29.93in /  1013.4hPa ESE 3.5mph /  5.6km/h 3.5mph /  5.6km/h 59% 0.00in /  0mm WeatherDisplay:10.37 W/m2 OVC
06:02 54.5 °F /  12.5 °C 40.5 °F /  4.7 °C 29.93in /  1013.4hPa ESE 4.0mph /  6.4km/h 4.0mph /  6.4km/h 59% 0.00in /  0mm WeatherDisplay:10.37 W/m2 OVC
06:05 54.6 °F /  12.6 °C 40.6 °F /  4.8 °C 29.93in /  1013.4hPa ESE 3.5mph /  5.6km/h 3.5mph /  5.6km/h 59% 0.00in /  0mm WeatherDisplay:10.37 W/m2 OVC
06:10 54.7 °F /  12.6 °C 40.2 °F /  4.6 °C 29.93in /  1013.4hPa ESE 2.3mph /  3.7km/h 2.3mph /  3.7km/h 58% 0.00in /  0mm WeatherDisplay:10.37 W/m2 OVC
06:12 54.7 °F /  12.6 °C 40.2 °F /  4.6 °C 29.93in /  1013.4hPa ENE 2.3mph /  3.7km/h 2.3mph /  3.7km/h 58% 0.00in /  0mm WeatherDisplay:10.37 W/m2 OVC
06:15 54.7 °F /  12.6 °C 40.2 °F /  4.6 °C 29.94in /  1013.8hPa East 2.3mph /  3.7km/h   58% 0.00in /  0mm WeatherDisplay:10.37 W/m2 OVC
06:20 54.5 °F /  12.5 °C 40.0 °F /  4.4 °C 29.94in /  1013.8hPa East 4.0mph /  6.4km/h 4.0mph /  6.4km/h 58% 0.00in /  0mm WeatherDisplay:10.37 W/m2 OVC
06:25 54.2 °F /  12.3 °C 39.7 °F /  4.3 °C 29.94in /  1013.8hPa East 3.5mph /  5.6km/h 3.5mph /  5.6km/h 58% 0.00in /  0mm WeatherDisplay:10.37 W/m2 OVC
06:27 54.2 °F /  12.3 °C 39.7 °F /  4.3 °C 29.94in /  1013.8hPa ESE 3.5mph /  5.6km/h 3.5mph /  5.6km/h 58% 0.00in /  0mm WeatherDisplay:10.37 W/m2 OVC
06:32 54.2 °F /  12.3 °C 39.3 °F /  4.1 °C 29.94in /  1013.8hPa ENE 4.0mph /  6.4km/h 4.0mph /  6.4km/h 57% 0.00in /  0mm WeatherDisplay:10.37 W/m2 OVC
06:37 54.1 °F /  12.3 °C 39.2 °F /  4 °C 29.94in /  1013.8hPa East 5.0mph /  8km/h 5.0mph /  8km/h 57% 0.00in /  0mm WeatherDisplay:10.37 W/m2 OVC
06:42 54.0 °F /  12.2 °C 39.1 °F /  3.9 °C 29.95in /  1014.1hPa ESE 4.6mph /  7.4km/h 4.6mph /  7.4km/h 57% 0.00in /  0mm WeatherDisplay:10.37 W/m2 OVC
06:47 54.0 °F /  12.2 °C 39.1 °F /  3.9 °C 29.94in /  1013.8hPa ENE 4.0mph /  6.4km/h 4.0mph /  6.4km/h 57% 0.00in /  0mm WeatherDisplay:10.37 W/m2 OVC
06:52 53.8 °F /  12.1 °C 38.9 °F /  3.8 °C 29.95in /  1014.1hPa East 4.6mph /  7.4km/h 4.6mph /  7.4km/h 57% 0.00in /  0mm WeatherDisplay:10.37 W/m2 OVC
07:02 53.4 °F /  11.9 °C 39.0 °F /  3.9 °C 29.94in /  1013.8hPa ENE 5.0mph /  8km/h 5.0mph /  8km/h 58% 0.00in /  0mm WeatherDisplay:10.37 W/m2 OVC
07:07 53.4 °F /  11.9 °C 39.4 °F /  4.1 °C 29.94in /  1013.8hPa East 2.3mph /  3.7km/h 2.3mph /  3.7km/h 59% 0.00in /  0mm WeatherDisplay:10.37 W/m2 OVC
07:08 53.5 °F /  11.9 °C 39.5 °F /  4.2 °C 29.94in /  1013.8hPa East 2.3mph /  3.7km/h 2.3mph /  3.7km/h 59% 0.00in /  0mm WeatherDisplay:10.37 W/m2 OVC
07:12 53.5 °F /  11.9 °C 39.5 °F /  4.2 °C 29.94in /  1013.8hPa East 3.5mph /  5.6km/h 3.5mph /  5.6km/h 59% 0.00in /  0mm WeatherDisplay:10.37 W/m2 OVC
07:17 53.6 °F /  12 °C 39.6 °F /  4.2 °C 29.94in /  1013.8hPa ENE 6.0mph /  9.7km/h 6.0mph /  9.7km/h 59% 0.00in /  0mm WeatherDisplay:10.37 W/m2 OVC
07:22 53.4 °F /  11.9 °C 39.4 °F /  4.1 °C 29.95in /  1014.1hPa ENE 2.0mph /  3.2km/h 6.0mph /  9.7km/h 59% 0.00in /  0mm WeatherDisplay:10.37 W/m2 OVC
07:27 53.2 °F /  11.8 °C 38.8 °F /  3.8 °C 29.95in /  1014.1hPa ENE 3.0mph /  4.8km/h 5.0mph /  8km/h 58% 0.00in /  0mm WeatherDisplay:10.37 W/m2 OVC
07:30 53.0 °F /  11.7 °C 38.6 °F /  3.7 °C 29.95in /  1014.1hPa ENE 3.5mph /  5.6km/h 3.5mph /  5.6km/h 58% 0.00in /  0mm WeatherDisplay:10.37 W/m2 OVC
07:35 52.9 °F /  11.6 °C 38.5 °F /  3.6 °C 29.95in /  1014.1hPa NE 2.3mph /  3.7km/h 2.3mph /  3.7km/h 58% 0.00in /  0mm WeatherDisplay:10.37 W/m2 OVC
07:40 52.8 °F /  11.6 °C 38.4 °F /  3.6 °C 29.96in /  1014.4hPa NE 4.6mph /  7.4km/h 4.6mph /  7.4km/h 58% 0.00in /  0mm WeatherDisplay:10.37 W/m2 OVC
07:45 52.7 °F /  11.5 °C 37.9 °F /  3.3 °C 29.96in /  1014.4hPa ENE 6.0mph /  9.7km/h 6.0mph /  9.7km/h 57% 0.00in /  0mm WeatherDisplay:10.37 W/m2 OVC
07:50 52.6 °F /  11.4 °C 38.2 °F /  3.4 °C 29.96in /  1014.4hPa ESE 3.5mph /  5.6km/h 3.5mph /  5.6km/h 58% 0.00in /  0mm WeatherDisplay:10.37 W/m2 OVC
07:55 52.9 °F /  11.6 °C 38.5 °F /  3.6 °C 29.96in /  1014.4hPa Calm     58% 0.00in /  0mm WeatherDisplay:10.37 W/m2 OVC
08:00 53.8 °F /  12.1 °C 39.4 °F /  4.1 °C 29.95in /  1014.1hPa SSE 6.0mph /  9.7km/h 6.0mph /  9.7km/h 58% 0.00in /  0mm WeatherDisplay:10.37 W/m2 OVC
08:04 54.8 °F /  12.7 °C 39.8 °F /  4.3 °C 29.95in /  1014.1hPa ESE 3.5mph /  5.6km/h 3.5mph /  5.6km/h 57% 0.00in /  0mm WeatherDisplay:10.37 W/m2 OVC
08:05 54.9 °F /  12.7 °C 39.9 °F /  4.4 °C 29.96in /  1014.4hPa ESE 3.5mph /  5.6km/h 3.5mph /  5.6km/h 57% 0.00in /  0mm WeatherDisplay:10.37 W/m2 OVC
08:10 56.0 °F /  13.3 °C 40.5 °F /  4.7 °C 29.96in /  1014.4hPa ESE 2.0mph /  3.2km/h 2.0mph /  3.2km/h 56% 0.00in /  0mm WeatherDisplay:10.37 W/m2 OVC
08:15 56.7 °F /  13.7 °C 40.7 °F /  4.8 °C 29.97in /  1014.8hPa East 3.5mph /  5.6km/h 3.5mph /  5.6km/h 55% 0.00in /  0mm WeatherDisplay:10.37 W/m2 OVC
08:20 57.0 °F /  13.9 °C 40.5 °F /  4.7 °C 29.97in /  1014.8hPa NNE 3.5mph /  5.6km/h 3.5mph /  5.6km/h 54% 0.00in /  0mm WeatherDisplay:10.37 W/m2 OVC
08:25 56.9 °F /  13.8 °C 40.4 °F /  4.7 °C 29.97in /  1014.8hPa ENE 4.0mph /  6.4km/h 4.0mph /  6.4km/h 54% 0.00in /  0mm WeatherDisplay:10.37 W/m2 OVC
08:30 57.0 °F /  13.9 °C 40.5 °F /  4.7 °C 29.98in /  1015.1hPa NE 3.5mph /  5.6km/h 3.5mph /  5.6km/h 54% 0.00in /  0mm WeatherDisplay:10.37 W/m2 OVC
08:35 56.9 °F /  13.8 °C 40.4 °F /  4.7 °C 29.98in /  1015.1hPa ENE 2.3mph /  3.7km/h 2.3mph /  3.7km/h 54% 0.00in /  0mm WeatherDisplay:10.37 W/m2 OVC
08:40 57.8 °F /  14.3 °C 40.8 °F /  4.9 °C 29.98in /  1015.1hPa ENE 1.2mph /  1.9km/h   53% 0.00in /  0mm WeatherDisplay:10.37 W/m2 OVC
08:45 58.6 °F /  14.8 °C 41.0 °F /  5 °C 29.98in /  1015.1hPa ESE 4.0mph /  6.4km/h 4.0mph /  6.4km/h 52% 0.00in /  0mm WeatherDisplay:10.37 W/m2 OVC
08:50 59.2 °F /  15.1 °C 41.6 °F /  5.3 °C 29.98in /  1015.1hPa SE 3.5mph /  5.6km/h 3.5mph /  5.6km/h 52% 0.00in /  0mm WeatherDisplay:10.37 W/m2 OVC
08:55 59.8 °F /  15.4 °C 41.6 °F /  5.3 °C 29.98in /  1015.1hPa SE 2.3mph /  3.7km/h 2.3mph /  3.7km/h 51% 0.00in /  0mm WeatherDisplay:10.37 W/m2 OVC
09:00 60.1 °F /  15.6 °C 41.9 °F /  5.5 °C 29.98in /  1015.1hPa SE 4.0mph /  6.4km/h 4.0mph /  6.4km/h 51% 0.00in /  0mm WeatherDisplay:10.37 W/m2 OVC
09:05 60.6 °F /  15.9 °C 42.4 °F /  5.8 °C 29.98in /  1015.1hPa ESE 5.0mph /  8km/h 5.0mph /  8km/h 51% 0.00in /  0mm WeatherDisplay:10.37 W/m2 OVC
09:10 61.2 °F /  16.2 °C 42.4 °F /  5.8 °C 29.98in /  1015.1hPa ESE 5.8mph /  9.3km/h 5.8mph /  9.3km/h 50% 0.00in /  0mm WeatherDisplay:10.37 W/m2 OVC
09:15 61.5 °F /  16.4 °C 42.2 °F /  5.7 °C 29.97in /  1014.8hPa SE 6.0mph /  9.7km/h 6.0mph /  9.7km/h 49% 0.00in /  0mm WeatherDisplay:10.37 W/m2 OVC
09:20 61.7 °F /  16.5 °C 42.3 °F /  5.7 °C 29.97in /  1014.8hPa ESE 6.0mph /  9.7km/h 6.0mph /  9.7km/h 49% 0.00in /  0mm WeatherDisplay:10.37 W/m2 OVC
09:25 62.3 °F /  16.8 °C 42.9 °F /  6.1 °C 29.98in /  1015.1hPa ENE 5.0mph /  8km/h 5.0mph /  8km/h 49% 0.00in /  0mm WeatherDisplay:10.37 W/m2 OVC
09:30 62.6 °F /  17 °C 43.2 °F /  6.2 °C 29.98in /  1015.1hPa East 5.8mph /  9.3km/h 5.8mph /  9.3km/h 49% 0.00in /  0mm WeatherDisplay:10.37 W/m2 OVC
09:35 63.2 °F /  17.3 °C 43.2 °F /  6.2 °C 29.98in /  1015.1hPa ENE 8.1mph /  13km/h 8.1mph /  13km/h 48% 0.00in /  0mm WeatherDisplay:10.37 W/m2 OVC
09:40 63.3 °F /  17.4 °C 42.7 °F /  5.9 °C 29.98in /  1015.1hPa ENE 7.0mph /  11.3km/h 7.0mph /  11.3km/h 47% 0.00in /  0mm WeatherDisplay:10.37 W/m2 OVC
09:45 62.8 °F /  17.1 °C 42.3 °F /  5.7 °C 29.98in /  1015.1hPa NE 6.9mph /  11.1km/h 6.9mph /  11.1km/h 47% 0.00in /  0mm WeatherDisplay:10.37 W/m2 OVC
09:51 62.7 °F /  17.1 °C 42.2 °F /  5.7 °C 29.98in /  1015.1hPa ENE 7.0mph /  11.3km/h 7.0mph /  11.3km/h 47% 0.00in /  0mm WeatherDisplay:10.37 W/m2 OVC
09:56 62.5 °F /  16.9 °C 42.0 °F /  5.6 °C 29.98in /  1015.1hPa ENE 6.0mph /  9.7km/h 6.0mph /  9.7km/h 47% 0.00in /  0mm WeatherDisplay:10.37 W/m2 OVC
10:01 63.0 °F /  17.2 °C 42.4 °F /  5.8 °C 29.98in /  1015.1hPa East 5.0mph /  8km/h 5.0mph /  8km/h 47% 0.00in /  0mm WeatherDisplay:10.37 W/m2 OVC
10:06 63.7 °F /  17.6 °C 42.5 °F /  5.8 °C 29.97in /  1014.8hPa ENE 6.9mph /  11.1km/h 6.9mph /  11.1km/h 46% 0.00in /  0mm WeatherDisplay:10.37 W/m2 OVC
10:11 64.5 °F /  18.1 °C 43.3 °F /  6.3 °C 29.97in /  1014.8hPa East 5.8mph /  9.3km/h 5.8mph /  9.3km/h 46% 0.00in /  0mm WeatherDisplay:10.37 W/m2 OVC
10:16 65.3 °F /  18.5 °C 43.4 °F /  6.3 °C 29.97in /  1014.8hPa SE 3.5mph /  5.6km/h 3.5mph /  5.6km/h 45% 0.00in /  0mm WeatherDisplay:10.37 W/m2 OVC
10:18 65.9 °F /  18.8 °C 43.9 °F /  6.6 °C 29.97in /  1014.8hPa SE 2.3mph /  3.7km/h 2.3mph /  3.7km/h 45% 0.00in /  0mm WeatherDisplay:10.37 W/m2 OVC
10:23 66.7 °F /  19.3 °C 44.1 °F /  6.7 °C 29.98in /  1015.1hPa NE 3.5mph /  5.6km/h 3.5mph /  5.6km/h 44% 0.00in /  0mm WeatherDisplay:10.37 W/m2 OVC
10:28 67.1 °F /  19.5 °C 45.0 °F /  7.2 °C 29.98in /  1015.1hPa North 2.3mph /  3.7km/h 2.3mph /  3.7km/h 45% 0.00in /  0mm WeatherDisplay:10.37 W/m2 OVC
10:29 67.2 °F /  19.6 °C 44.5 °F /  6.9 °C 29.98in /  1015.1hPa NE 2.3mph /  3.7km/h 2.3mph /  3.7km/h 44% 0.00in /  0mm WeatherDisplay:10.37 W/m2 OVC
10:33 67.7 °F /  19.8 °C 45.0 °F /  7.2 °C 29.97in /  1014.8hPa East 2.3mph /  3.7km/h 2.3mph /  3.7km/h 44% 0.00in /  0mm WeatherDisplay:10.37 W/m2 OVC
10:37 67.8 °F /  19.9 °C 45.1 °F /  7.3 °C 29.98in /  1015.1hPa East 2.3mph /  3.7km/h 2.3mph /  3.7km/h 44% 0.00in /  0mm WeatherDisplay:10.37 W/m2 OVC
10:40 68.2 °F /  20.1 °C 44.8 °F /  7.1 °C 29.97in /  1014.8hPa East 3.0mph /  4.8km/h 3.0mph /  4.8km/h 43% 0.00in /  0mm WeatherDisplay:10.37 W/m2 OVC
10:45 68.8 °F /  20.4 °C 45.4 °F /  7.4 °C 29.97in /  1014.8hPa ESE 2.3mph /  3.7km/h 2.3mph /  3.7km/h 43% 0.00in /  0mm WeatherDisplay:10.37 W/m2 OVC
10:50 69.5 °F /  20.8 °C 45.4 °F /  7.4 °C 29.97in /  1014.8hPa ENE 5.0mph /  8km/h 5.0mph /  8km/h 42% 0.00in /  0mm WeatherDisplay:10.37 W/m2 OVC
10:55 70.2 °F /  21.2 °C 45.4 °F /  7.4 °C 29.96in /  1014.4hPa ESE 2.3mph /  3.7km/h 2.3mph /  3.7km/h 41% 0.00in /  0mm WeatherDisplay:10.37 W/m2 OVC
11:05 71.6 °F /  22 °C 44.6 °F /  7 °C 29.96in /  1014.4hPa SE 3.5mph /  5.6km/h 3.5mph /  5.6km/h 38% 0.00in /  0mm WeatherDisplay:10.37 W/m2 OVC
11:10 72.4 °F /  22.4 °C 45.4 °F /  7.4 °C 29.96in /  1014.4hPa East 2.3mph /  3.7km/h 2.3mph /  3.7km/h 38% 0.00in /  0mm WeatherDisplay:10.37 W/m2 OVC
11:15 73.1 °F /  22.8 °C 44.5 °F /  6.9 °C 29.96in /  1014.4hPa Calm     36% 0.00in /  0mm WeatherDisplay:10.37 W/m2 OVC
11:19 73.2 °F /  22.9 °C 43.9 °F /  6.6 °C 29.96in /  1014.4hPa ENE 2.0mph /  3.2km/h 2.0mph /  3.2km/h 35% 0.00in /  0mm WeatherDisplay:10.37 W/m2 OVC
11:20 73.1 °F /  22.8 °C 43.8 °F /  6.6 °C 29.96in /  1014.4hPa NE 3.5mph /  5.6km/h 3.5mph /  5.6km/h 35% 0.00in /  0mm WeatherDisplay:10.37 W/m2 OVC
11:25 73.4 °F /  23 °C 44.1 °F /  6.7 °C 29.95in /  1014.1hPa Calm     35% 0.00in /  0mm WeatherDisplay:10.37 W/m2 OVC
11:30 74.1 °F /  23.4 °C 42.3 °F /  5.7 °C 29.95in /  1014.1hPa Calm     32% 0.00in /  0mm WeatherDisplay:10.37 W/m2 OVC
11:35 75.1 °F /  23.9 °C 37.9 °F /  3.3 °C 29.95in /  1014.1hPa SW 6.9mph /  11.1km/h 6.9mph /  11.1km/h 26% 0.00in /  0mm WeatherDisplay:10.37 W/m2 OVC
11:40 75.3 °F /  24.1 °C 37.0 °F /  2.8 °C 29.95in /  1014.1hPa WNW 4.6mph /  7.4km/h 4.9mph /  7.9km/h 25% 0.00in /  0mm WeatherDisplay:10.37 W/m2 OVC
11:42 75.2 °F /  24 °C 37.9 °F /  3.3 °C 29.95in /  1014.1hPa WSW 6.9mph /  11.1km/h 6.9mph /  11.1km/h 26% 0.00in /  0mm WeatherDisplay:10.37 W/m2 OVC
11:47 75.0 °F /  23.9 °C 37.7 °F /  3.2 °C 29.94in /  1013.8hPa West 3.0mph /  4.8km/h 6.0mph /  9.7km/h 26% 0.00in /  0mm WeatherDisplay:10.37 W/m2 OVC
11:52 74.8 °F /  23.8 °C 37.6 °F /  3.1 °C 29.94in /  1013.8hPa WNW 6.9mph /  11.1km/h 6.9mph /  11.1km/h 26% 0.00in /  0mm WeatherDisplay:10.37 W/m2 OVC
11:57 75.3 °F /  24.1 °C 38.0 °F /  3.3 °C 29.94in /  1013.8hPa West 5.8mph /  9.3km/h 5.8mph /  9.3km/h 26% 0.00in /  0mm WeatherDisplay:10.37 W/m2 OVC
12:02 75.3 °F /  24.1 °C 37.0 °F /  2.8 °C 29.93in /  1013.4hPa SW 6.0mph /  9.7km/h 6.0mph /  9.7km/h 25% 0.00in /  0mm WeatherDisplay:10.37 W/m2 OVC
12:07 75.3 °F /  24.1 °C 36.0 °F /  2.2 °C 29.93in /  1013.4hPa WSW 6.0mph /  9.7km/h 8.0mph /  12.9km/h 24% 0.00in /  0mm WeatherDisplay:10.37 W/m2 OVC
12:12 75.7 °F /  24.3 °C 36.3 °F /  2.4 °C 29.93in /  1013.4hPa WNW 3.5mph /  5.6km/h 3.5mph /  5.6km/h 24% 0.00in /  0mm WeatherDisplay:10.37 W/m2 OVC
12:17 76.2 °F /  24.6 °C 36.8 °F /  2.7 °C 29.92in /  1013.1hPa West 4.6mph /  7.4km/h 4.6mph /  7.4km/h 24% 0.00in /  0mm WeatherDisplay:10.37 W/m2 OVC
12:22 76.3 °F /  24.6 °C 36.8 °F /  2.7 °C 29.92in /  1013.1hPa West 4.6mph /  7.4km/h 4.6mph /  7.4km/h 24% 0.00in /  0mm WeatherDisplay:10.37 W/m2 OVC
12:27 76.4 °F /  24.7 °C 36.9 °F /  2.7 °C 29.92in /  1013.1hPa WSW 8.1mph /  13km/h 8.1mph /  13km/h 24% 0.00in /  0mm WeatherDisplay:10.37 W/m2 OVC
12:32 76.1 °F /  24.5 °C 37.7 °F /  3.2 °C 29.91in /  1012.8hPa SW 7.0mph /  11.3km/h 7.0mph /  11.3km/h 25% 0.00in /  0mm WeatherDisplay:10.37 W/m2 OVC
12:35 76.3 °F /  24.6 °C 37.9 °F /  3.3 °C 29.92in /  1013.1hPa WSW 5.8mph /  9.3km/h 5.8mph /  9.3km/h 25% 0.00in /  0mm WeatherDisplay:10.37 W/m2 OVC
12:40 76.4 °F /  24.7 °C 38.0 °F /  3.3 °C 29.91in /  1012.8hPa WSW 9.2mph /  14.8km/h 9.2mph /  14.8km/h 25% 0.00in /  0mm WeatherDisplay:10.37 W/m2 OVC
12:45 76.6 °F /  24.8 °C 38.1 °F /  3.4 °C 29.91in /  1012.8hPa WSW 4.6mph /  7.4km/h 4.6mph /  7.4km/h 25% 0.00in /  0mm WeatherDisplay:10.37 W/m2 OVC
12:50 76.9 °F /  24.9 °C 37.3 °F /  2.9 °C 29.91in /  1012.8hPa SW 9.2mph /  14.8km/h 9.2mph /  14.8km/h 24% 0.00in /  0mm WeatherDisplay:10.37 W/m2 OVC
12:55 77.2 °F /  25.1 °C 36.5 °F /  2.5 °C 29.91in /  1012.8hPa South 5.0mph /  8km/h 5.0mph /  8km/h 23% 0.00in /  0mm WeatherDisplay:10.37 W/m2 OVC
13:00 77.2 °F /  25.1 °C 36.5 °F /  2.5 °C 29.91in /  1012.8hPa SW 6.9mph /  11.1km/h 6.9mph /  11.1km/h 23% 0.00in /  0mm WeatherDisplay:10.37 W/m2 OVC
13:05 77.3 °F /  25.2 °C 35.5 °F /  1.9 °C 29.90in /  1012.4hPa WSW 8.1mph /  13km/h 8.1mph /  13km/h 22% 0.00in /  0mm WeatherDisplay:10.37 W/m2 OVC
13:10 77.2 °F /  25.1 °C 36.5 °F /  2.5 °C 29.90in /  1012.4hPa SW 9.2mph /  14.8km/h 9.2mph /  14.8km/h 23% 0.00in /  0mm WeatherDisplay:10.37 W/m2 OVC
13:15 77.3 °F /  25.2 °C 36.6 °F /  2.6 °C 29.90in /  1012.4hPa WSW 5.8mph /  9.3km/h 5.8mph /  9.3km/h 23% 0.00in /  0mm WeatherDisplay:10.37 W/m2 OVC
13:25 77.6 °F /  25.3 °C 32.1 °F /  0.1 °C 29.89in /  1012.1hPa SW 8.1mph /  13km/h 8.1mph /  13km/h 19% 0.00in /  0mm WeatherDisplay:10.37 W/m2 OVC
13:30 78.0 °F /  25.6 °C 31.0 °F /  -0.6 °C 29.89in /  1012.1hPa WNW 2.3mph /  3.7km/h 2.9mph /  4.7km/h 18% 0.00in /  0mm WeatherDisplay:10.37 W/m2 OVC
13:35 78.2 °F /  25.7 °C 29.8 °F /  -1.2 °C 29.89in /  1012.1hPa WSW 10.4mph /  16.7km/h 10.4mph /  16.7km/h 17% 0.00in /  0mm WeatherDisplay:10.37 W/m2 OVC
13:40 78.0 °F /  25.6 °C 29.6 °F /  -1.3 °C 29.89in /  1012.1hPa SSW 9.2mph /  14.8km/h 9.2mph /  14.8km/h 17% 0.00in /  0mm WeatherDisplay:10.37 W/m2 OVC
13:45 78.1 °F /  25.6 °C 29.7 °F /  -1.3 °C 29.89in /  1012.1hPa SW 7.0mph /  11.3km/h 7.0mph /  11.3km/h 17% 0.00in /  0mm WeatherDisplay:10.37 W/m2 OVC
13:50 78.3 °F /  25.7 °C 31.3 °F /  -0.4 °C 29.89in /  1012.1hPa WNW 10.4mph /  16.7km/h 10.4mph /  16.7km/h 18% 0.00in /  0mm WeatherDisplay:10.37 W/m2 OVC
13:55 78.0 °F /  25.6 °C 31.0 °F /  -0.6 °C 29.89in /  1012.1hPa WNW 11.5mph /  18.5km/h 11.5mph /  18.5km/h 18% 0.00in /  0mm WeatherDisplay:10.37 W/m2 OVC
14:00 77.9 °F /  25.5 °C 32.3 °F /  0.2 °C 29.88in /  1011.7hPa West 9.2mph /  14.8km/h 9.2mph /  14.8km/h 19% 0.00in /  0mm WeatherDisplay:10.37 W/m2 OVC
14:05 78.1 °F /  25.6 °C 32.5 °F /  0.3 °C 29.88in /  1011.7hPa South 12.7mph /  20.4km/h 12.7mph /  20.4km/h 19% 0.00in /  0mm WeatherDisplay:10.37 W/m2 OVC
14:10 78.3 °F /  25.7 °C 32.6 °F /  0.3 °C 29.88in /  1011.7hPa SSW 6.9mph /  11.1km/h 6.9mph /  11.1km/h 19% 0.00in /  0mm WeatherDisplay:10.37 W/m2 OVC
14:15 77.9 °F /  25.5 °C 34.8 °F /  1.6 °C 29.88in /  1011.7hPa West 10.4mph /  16.7km/h 10.4mph /  16.7km/h 21% 0.00in /  0mm WeatherDisplay:10.37 W/m2 OVC
14:20 77.8 °F /  25.4 °C 34.7 °F /  1.5 °C 29.87in /  1011.4hPa WSW 8.1mph /  13km/h 8.1mph /  13km/h 21% 0.00in /  0mm WeatherDisplay:10.37 W/m2 OVC
14:25 78.0 °F /  25.6 °C 32.4 °F /  0.2 °C 29.87in /  1011.4hPa WNW 9.2mph /  14.8km/h 9.2mph /  14.8km/h 19% 0.00in /  0mm WeatherDisplay:10.37 W/m2 OVC
14:31 78.3 °F /  25.7 °C 32.6 °F /  0.3 °C 29.87in /  1011.4hPa WNW 8.1mph /  13km/h 8.1mph /  13km/h 19% 0.00in /  0mm WeatherDisplay:10.37 W/m2 OVC
14:36 78.2 °F /  25.7 °C 32.5 °F /  0.3 °C 29.87in /  1011.4hPa WNW 8.1mph /  13km/h 8.1mph /  13km/h 19% 0.00in /  0mm WeatherDisplay:10.37 W/m2 OVC
14:41 78.1 °F /  25.6 °C 35.0 °F /  1.7 °C 29.87in /  1011.4hPa WNW 8.1mph /  13km/h 8.1mph /  13km/h 21% 0.00in /  0mm WeatherDisplay:10.37 W/m2 OVC
14:46 77.9 °F /  25.5 °C 33.6 °F /  0.9 °C 29.87in /  1011.4hPa WNW 10.4mph /  16.7km/h 10.4mph /  16.7km/h 20% 0.00in /  0mm WeatherDisplay:10.37 W/m2 OVC
14:51 77.9 °F /  25.5 °C 33.6 °F /  0.9 °C 29.87in /  1011.4hPa WNW 10.4mph /  16.7km/h 10.4mph /  16.7km/h 20% 0.00in /  0mm WeatherDisplay:10.37 W/m2 OVC
14:56 77.8 °F /  25.4 °C 33.5 °F /  0.8 °C 29.87in /  1011.4hPa West 4.6mph /  7.4km/h 4.6mph /  7.4km/h 20% 0.00in /  0mm WeatherDisplay:10.37 W/m2 OVC
15:01 78.3 °F /  25.7 °C 32.6 °F /  0.3 °C 29.87in /  1011.4hPa WSW 5.0mph /  8km/h 5.0mph /  8km/h 19% 0.00in /  0mm WeatherDisplay:10.37 W/m2 OVC
15:11 78.5 °F /  25.8 °C 31.4 °F /  -0.3 °C 29.87in /  1011.4hPa WSW 6.9mph /  11.1km/h 6.9mph /  11.1km/h 18% 0.00in /  0mm WeatherDisplay:10.37 W/m2 OVC
15:16 78.3 °F /  25.7 °C 32.6 °F /  0.3 °C 29.87in /  1011.4hPa WNW 6.9mph /  11.1km/h 6.9mph /  11.1km/h 19% 0.00in /  0mm WeatherDisplay:10.37 W/m2 OVC
15:21 78.5 °F /  25.8 °C 32.8 °F /  0.4 °C 29.87in /  1011.4hPa SW 10.4mph /  16.7km/h 10.4mph /  16.7km/h 19% 0.00in /  0mm WeatherDisplay:10.37 W/m2 OVC
15:31 78.7 °F /  25.9 °C 31.6 °F /  -0.2 °C 29.87in /  1011.4hPa WSW 5.8mph /  9.3km/h 5.8mph /  9.3km/h 18% 0.00in /  0mm WeatherDisplay:10.37 W/m2 OVC
15:36 78.3 °F /  25.7 °C 32.6 °F /  0.3 °C 29.87in /  1011.4hPa West 9.2mph /  14.8km/h 9.2mph /  14.8km/h 19% 0.00in /  0mm WeatherDisplay:10.37 W/m2 OVC
Hermosillo, Sonora, Mexico
Compliments of Weather Underground - 2.5 mb